Time;durP1;ratioP1;P1;durP2;ratioP2;P2;SDS_P1;SDS_P2;PMS_P1;PMS_P2;Temp;Humidity;BMP_temperature;BMP_pressure;BME280_temperature;BME280_humidity;BME280_pressure;Samples;Min_cycle;Max_cycle;Signal;HPM_P1;HPM_P2
2022/02/14 00:02:51;;;;;;;17.37;10.85;;;;;;;0.99;60.38;100249.35;2178552;81;31643;-63
2022/02/14 00:05:53;;;;;;;19.67;11.20;;;;;;;1.04;60.50;100254.11;2178380;81;33354;-62
2022/02/14 00:08:55;;;;;;;14.78;8.25;;;;;;;1.06;60.34;100257.60;2178696;81;29711;-61
2022/02/14 00:11:56;;;;;;;13.20;8.38;;;;;;;1.10;60.18;100249.20;2178643;81;27603;-62
2022/02/14 00:14:58;;;;;;;17.48;8.65;;;;;;;1.12;60.08;100248.74;2178390;81;28729;-63
2022/02/14 00:17:59;;;;;;;15.45;8.18;;;;;;;1.15;59.96;100243.89;2178231;81;30758;-62
2022/02/14 00:21:02;;;;;;;19.65;9.43;;;;;;;1.15;59.90;100246.08;2178168;81;33290;-62
2022/02/14 00:24:06;;;;;;;12.00;8.38;;;;;;;1.17;59.89;100255.28;2178869;81;29694;-62
2022/02/14 00:27:08;;;;;;;11.18;5.50;;;;;;;1.17;59.81;100239.45;2177618;81;33002;-62
2022/02/14 00:30:11;;;;;;;14.20;8.05;;;;;;;1.16;59.66;100241.69;2163211;81;29815;-63
2022/02/14 00:33:12;;;;;;;15.80;7.97;;;;;;;1.16;59.83;100235.09;2160667;82;31873;-63
2022/02/14 00:36:14;;;;;;;12.20;8.03;;;;;;;1.15;59.67;100235.98;2162171;82;33602;-63
2022/02/14 00:39:16;;;;;;;11.40;7.58;;;;;;;1.14;59.71;100228.49;2162066;82;29326;-63
2022/02/14 00:42:18;;;;;;;13.88;7.42;;;;;;;1.13;59.60;100229.38;2162142;82;28156;-63
2022/02/14 00:45:19;;;;;;;14.65;10.03;;;;;;;1.13;59.60;100232.48;2161597;82;28073;-64
2022/02/14 00:48:21;;;;;;;20.60;14.13;;;;;;;1.13;59.48;100233.34;2161642;81;31827;-63
2022/02/14 00:51:23;;;;;;;17.37;8.65;;;;;;;1.13;59.33;100229.38;2161850;82;32931;-66
2022/02/14 00:54:24;;;;;;;14.33;9.33;;;;;;;1.15;59.19;100235.98;2161046;82;29306;-64
2022/02/14 00:57:27;;;;;;;17.37;9.63;;;;;;;1.15;59.26;100237.30;2162048;82;27641;-64
2022/02/14 01:00:29;;;;;;;15.75;9.00;;;;;;;1.12;59.35;100236.87;2161952;82;29515;-63
2022/02/14 01:03:31;;;;;;;15.85;9.20;;;;;;;1.08;59.36;100231.19;2161516;82;31097;-63
2022/02/14 01:06:32;;;;;;;13.10;7.67;;;;;;;1.04;59.28;100228.19;2161896;82;33930;-63
2022/02/14 01:09:34;;;;;;;16.90;8.88;;;;;;;0.99;59.10;100222.97;2161528;82;29326;-63
2022/02/14 01:12:37;;;;;;;18.40;9.35;;;;;;;0.96;59.19;100227.38;2162080;81;27717;-64
2022/02/14 01:15:39;;;;;;;19.65;10.55;;;;;;;0.90;59.20;100222.63;2161860;82;28644;-63
2022/02/14 01:18:41;;;;;;;20.32;10.90;;;;;;;0.85;59.38;100223.55;2159492;82;30933;-63
2022/02/14 01:21:43;;;;;;;23.07;12.53;;;;;;;0.78;59.37;100221.88;2158915;81;33007;-64
2022/02/14 01:24:45;;;;;;;22.80;12.33;;;;;;;0.70;59.53;100215.38;2159121;81;29315;-63
2022/02/14 01:27:47;;;;;;;23.47;12.13;;;;;;;0.62;59.59;100202.70;2158677;81;27728;-63
2022/02/14 01:30:48;;;;;;;29.63;13.72;;;;;;;0.56;59.71;100203.64;2157668;82;30076;-63
2022/02/14 01:33:50;;;;;;;26.65;12.90;;;;;;;0.49;59.88;100199.34;2157940;81;31019;-63
2022/02/14 01:36:52;;;;;;;32.73;16.55;;;;;;;0.40;60.04;100200.30;2158248;81;33112;-63
2022/02/14 01:39:54;;;;;;;31.73;15.83;;;;;;;0.31;60.27;100201.25;2158455;81;30210;-63
2022/02/14 01:42:56;;;;;;;35.55;16.32;;;;;;;0.22;60.46;100201.32;2158522;82;27732;-63
2022/02/14 01:45:57;;;;;;;33.23;14.98;;;;;;;0.08;60.72;100194.41;2158543;82;28643;-63
2022/02/14 01:48:59;;;;;;;30.25;14.75;;;;;;;-0.02;60.78;100180.91;2158393;82;31016;-63
2022/02/14 01:52:01;;;;;;;31.50;14.95;;;;;;;-0.09;60.89;100174.81;2158610;81;33716;-63
2022/02/14 01:55:07;;;;;;;31.07;14.33;;;;;;;-0.13;60.98;100167.81;2157621;82;29417;-63
2022/02/14 01:58:09;;;;;;;30.17;15.10;;;;;;;-0.15;61.10;100173.53;2157937;81;27594;-63
2022/02/14 02:01:11;;;;;;;28.92;13.95;;;;;;;-0.16;61.13;100158.63;2158693;81;28729;-64
2022/02/14 02:04:14;;;;;;;26.35;13.18;;;;;;;-0.16;61.24;100153.36;2158394;81;31162;-63
2022/02/14 02:07:17;;;;;;;26.93;13.22;;;;;;;-0.14;61.20;100152.91;2157873;82;34176;-63
2022/02/14 02:10:19;;;;;;;23.15;12.63;;;;;;;-0.13;61.20;100141.91;2158153;81;30026;-64
2022/02/14 02:13:21;;;;;;;26.65;11.97;;;;;;;-0.10;61.22;100145.42;2158257;81;27706;-63
2022/02/14 02:16:23;;;;;;;25.35;12.40;;;;;;;-0.06;61.13;100139.67;2158071;81;28602;-63
2022/02/14 02:19:24;;;;;;;24.52;12.23;;;;;;;-0.02;61.12;100142.27;2157237;82;31084;-63
2022/02/14 02:22:26;;;;;;;20.82;11.35;;;;;;;0.03;61.07;100143.53;2157544;82;32906;-62
2022/02/14 02:25:28;;;;;;;24.65;11.63;;;;;;;0.07;61.02;100133.86;2158569;81;29587;-63
2022/02/14 02:28:30;;;;;;;23.40;12.98;;;;;;;0.11;60.86;100141.72;2158563;81;28098;-63
2022/02/14 02:31:32;;;;;;;25.27;12.33;;;;;;;0.14;60.81;100135.53;2158448;82;28873;-64
2022/02/14 02:34:40;;;;;;;22.30;11.90;;;;;;;0.17;60.72;100140.78;2158242;82;30445;-64
2022/02/14 02:37:42;;;;;;;23.85;12.25;;;;;;;0.19;60.71;100133.73;2158169;81;33050;-63
2022/02/14 02:40:44;;;;;;;24.43;12.35;;;;;;;0.20;60.67;100134.59;2158958;81;29333;-63
2022/02/14 02:43:46;;;;;;;25.62;12.53;;;;;;;0.19;60.64;100132.42;2159268;81;27690;-63
2022/02/14 02:46:47;;;;;;;23.65;12.03;;;;;;;0.18;60.61;100126.72;2157534;82;28833;-64
2022/02/14 02:49:50;;;;;;;22.52;12.25;;;;;;;0.18;60.63;100130.67;2158379;81;32092;-63
2022/02/14 02:52:52;;;;;;;21.30;11.05;;;;;;;0.18;60.59;100124.52;2176235;81;33125;-62
2022/02/14 02:55:54;;;;;;;17.27;10.70;;;;;;;0.20;60.58;100121.42;2197627;81;29295;-63
2022/02/14 02:58:55;;;;;;;25.92;14.07;;;;;;;0.22;60.54;100114.38;2197675;81;27652;-63
2022/02/14 03:01:57;;;;;;;25.35;12.20;;;;;;;0.23;60.62;100117.45;2197480;81;28682;-63
2022/02/14 03:04:59;;;;;;;25.43;11.68;;;;;;;0.20;60.62;100117.47;2197718;81;31233;-63
2022/02/14 03:08:01;;;;;;;21.55;11.88;;;;;;;0.15;60.63;100120.16;2197451;81;33762;-64
2022/02/14 03:11:02;;;;;;;21.97;11.18;;;;;;;0.11;60.66;100110.11;2197497;81;29521;-64
2022/02/14 03:14:05;;;;;;;20.48;11.15;;;;;;;0.12;60.68;100117.12;2197694;81;27674;-63
2022/02/14 03:17:10;;;;;;;22.13;11.63;;;;;;;0.13;60.78;100101.75;2197478;81;29450;-63
2022/02/14 03:20:12;;;;;;;21.95;10.93;;;;;;;0.13;60.71;100107.45;2197341;80;31673;-60
2022/02/14 03:23:14;;;;;;;17.55;9.88;;;;;;;0.16;60.78;100106.11;2197125;81;33869;-62
2022/02/14 03:26:19;;;;;;;21.23;11.65;;;;;;;0.16;60.69;100101.30;2197351;81;30509;-62
2022/02/14 03:29:21;;;;;;;21.68;11.53;;;;;;;0.15;60.68;100096.45;2197417;81;33383;-62
2022/02/14 03:32:23;;;;;;;18.92;11.85;;;;;;;0.14;60.69;100092.07;2197363;81;29100;-62
2022/02/14 03:35:25;;;;;;;20.00;11.93;;;;;;;0.12;60.77;100096.05;2197312;81;32210;-63
2022/02/14 03:38:27;;;;;;;23.90;12.73;;;;;;;0.10;60.72;100092.55;2196485;81;33113;-61
2022/02/14 03:41:29;;;;;;;22.07;11.38;;;;;;;0.07;60.80;100089.95;2197156;81;30639;-62
2022/02/14 03:44:31;;;;;;;24.85;12.47;;;;;;;0.05;60.93;100087.77;2197394;81;27733;-62
2022/02/14 03:47:33;;;;;;;23.47;12.18;;;;;;;0.03;61.02;100078.15;2197914;81;29144;-61
2022/02/14 03:50:35;;;;;;;20.57;11.75;;;;;;;0.01;61.08;100082.09;2197615;81;32341;-62
2022/02/14 03:53:38;;;;;;;21.07;12.55;;;;;;;0.03;61.17;100075.05;2197203;81;34172;-62
2022/02/14 03:56:39;;;;;;;20.27;10.98;;;;;;;0.07;61.25;100081.19;2197262;80;29919;-62
2022/02/14 03:59:41;;;;;;;18.80;11.03;;;;;;;0.11;61.26;100084.20;2197477;81;27608;-62
2022/02/14 04:02:44;;;;;;;22.90;11.85;;;;;;;0.12;61.17;100080.67;2197292;81;28739;-61
2022/02/14 04:05:45;;;;;;;22.65;11.08;;;;;;;0.11;61.16;100089.47;2191820;81;32187;-62
2022/02/14 04:08:47;;;;;;;26.62;12.80;;;;;;;0.05;61.12;100077.70;2155999;82;34179;-62
2022/02/14 04:11:49;;;;;;;25.10;12.98;;;;;;;0.02;61.19;100080.35;2157303;82;30465;-62
2022/02/14 04:14:51;;;;;;;25.30;13.10;;;;;;;-0.05;61.26;100076.91;2158155;82;27610;-62
2022/02/14 04:17:54;;;;;;;26.10;14.53;;;;;;;-0.11;61.31;100084.86;2157867;82;29542;-62
2022/02/14 04:20:56;;;;;;;29.32;13.45;;;;;;;-0.21;61.41;100070.90;2157730;82;31936;-62
2022/02/14 04:23:58;;;;;;;25.50;14.07;;;;;;;-0.32;61.51;100069.67;2157953;82;34105;-62
2022/02/14 04:27:00;;;;;;;24.30;13.98;;;;;;;-0.38;61.62;100073.70;2157890;82;29820;-61
2022/02/14 04:30:02;;;;;;;29.05;13.70;;;;;;;-0.44;61.79;100079.00;2157484;82;27655;-62
2022/02/14 04:33:05;;;;;;;23.57;13.45;;;;;;;-0.49;61.83;100073.78;2158309;81;29863;-62
2022/02/14 04:36:07;;;;;;;22.15;12.88;;;;;;;-0.55;61.96;100072.08;2158628;81;32120;-62
2022/02/14 04:39:10;;;;;;;25.52;13.53;;;;;;;-0.59;62.05;100067.72;2157289;82;33404;-62
2022/02/14 04:42:12;;;;;;;24.80;12.73;;;;;;;-0.60;62.11;100063.79;2157418;82;29372;-62
2022/02/14 04:45:14;;;;;;;26.12;13.78;;;;;;;-0.63;62.21;100064.24;2158032;82;27636;-62
2022/02/14 04:48:16;;;;;;;26.33;12.88;;;;;;;-0.64;62.28;100061.18;2157988;82;29242;-63
2022/02/14 04:51:18;;;;;;;27.32;13.72;;;;;;;-0.65;62.42;100063.38;2157884;82;31429;-61
2022/02/14 04:54:19;;;;;;;25.37;13.93;;;;;;;-0.66;62.45;100055.51;2158457;81;33070;-62
2022/02/14 04:57:21;;;;;;;23.05;12.50;;;;;;;-0.67;62.53;100049.36;2157309;82;30136;-62
2022/02/14 05:00:23;;;;;;;22.37;12.68;;;;;;;-0.68;62.64;100044.13;2158313;82;27610;-62
2022/02/14 05:03:25;;;;;;;20.85;12.40;;;;;;;-0.76;62.69;100032.34;2158094;82;29733;-61
2022/02/14 05:06:27;;;;;;;27.90;12.40;;;;;;;-0.67;62.84;100049.36;2158179;82;30929;-62
2022/02/14 05:09:28;;;;;;;28.70;11.63;;;;;;;-0.64;62.93;100040.13;2158235;82;32937;-62
2022/02/14 05:12:30;;;;;;;25.25;12.68;;;;;;;-0.60;63.01;100045.38;2158263;82;29345;-62
2022/02/14 05:15:34;;;;;;;23.60;12.28;;;;;;;-0.57;63.05;100051.47;2158541;82;27698;-63
2022/02/14 05:18:36;;;;;;;26.50;12.60;;;;;;;-0.52;63.03;100048.38;2158160;82;28817;-61
2022/02/14 05:21:38;;;;;;;23.45;12.68;;;;;;;-0.48;63.08;100047.90;2157240;82;31887;-62
2022/02/14 05:24:39;;;;;;;21.42;12.40;;;;;;;-0.46;63.05;100052.70;2156711;82;33351;-63
2022/02/14 05:27:41;;;;;;;23.73;12.53;;;;;;;-0.44;62.99;100050.94;2158190;81;29347;-62
2022/02/14 05:30:43;;;;;;;18.92;11.60;;;;;;;-0.42;63.03;100049.59;2158042;82;27642;-61
2022/02/14 05:33:45;;;;;;;25.57;12.45;;;;;;;-0.42;63.05;100046.97;2158311;81;29631;-63
2022/02/14 05:36:47;;;;;;;24.70;13.15;;;;;;;-0.43;63.02;100057.06;2157192;82;32372;-63
2022/02/14 05:39:50;;;;;;;21.57;12.53;;;;;;;-0.42;63.07;100050.91;2157850;82;33189;-62
2022/02/14 05:42:52;;;;;;;22.50;11.70;;;;;;;-0.42;63.06;100049.59;2158304;82;29337;-62
2022/02/14 05:45:53;;;;;;;26.97;13.00;;;;;;;-0.42;63.14;100054.44;2158660;82;27693;-62
2022/02/14 05:48:55;;;;;;;27.07;14.05;;;;;;;-0.40;63.12;100055.27;2158577;82;29820;-62
2022/02/14 05:51:57;;;;;;;24.87;13.32;;;;;;;-0.38;63.11;100052.64;2158194;82;32171;-63
2022/02/14 05:54:58;;;;;;;24.55;14.60;;;;;;;-0.37;63.06;100054.39;2158343;82;33417;-62
2022/02/14 05:58:00;;;;;;;22.00;13.30;;;;;;;-0.37;63.06;100063.14;2158096;82;30513;-62
2022/02/14 06:01:03;;;;;;;23.40;13.10;;;;;;;-0.37;63.04;100062.28;2158252;82;27605;-62
2022/02/14 06:04:04;;;;;;;27.85;13.62;;;;;;;-0.37;63.02;100064.45;2158297;82;30022;-62
2022/02/14 06:07:07;;;;;;;24.27;13.20;;;;;;;-0.36;63.05;100064.89;2158169;82;32225;-62
2022/02/14 06:10:09;;;;;;;29.32;13.10;;;;;;;-0.34;63.07;100067.53;2158402;82;33072;-63
2022/02/14 06:13:11;;;;;;;19.48;12.03;;;;;;;-0.32;63.07;100073.20;2158134;82;30486;-62
2022/02/14 06:16:13;;;;;;;28.25;13.10;;;;;;;-0.32;63.07;100067.93;2158177;82;27642;-63
2022/02/14 06:19:15;;;;;;;23.80;14.13;;;;;;;-0.30;63.08;100065.27;2157728;82;29884;-63
2022/02/14 06:22:17;;;;;;;28.55;12.70;;;;;;;-0.28;63.15;100067.91;2195066;81;31458;-62
2022/02/14 06:25:19;;;;;;;22.27;12.82;;;;;;;-0.25;63.18;100077.10;2197362;81;33435;-61
2022/02/14 06:28:21;;;;;;;22.15;12.35;;;;;;;-0.24;63.18;100070.92;2196973;81;29461;-62
2022/02/14 06:31:26;;;;;;;20.48;13.00;;;;;;;-0.21;63.25;100066.95;2197920;81;27618;-62
2022/02/14 06:34:27;;;;;;;21.75;12.82;;;;;;;-0.17;63.33;100069.56;2197319;81;29899;-62
2022/02/14 06:37:29;;;;;;;25.02;13.48;;;;;;;-0.11;63.35;100073.90;2197530;81;31413;-63
2022/02/14 06:40:31;;;;;;;25.05;13.43;;;;;;;-0.05;63.40;100074.28;2196559;81;33410;-62
2022/02/14 06:43:33;;;;;;;26.20;14.45;;;;;;;0.01;63.43;100068.92;2197214;81;30144;-62
2022/02/14 06:46:35;;;;;;;28.05;14.47;;;;;;;0.08;63.45;100068.45;2198146;81;27674;-62
2022/02/14 06:49:36;;;;;;;28.32;13.60;;;;;;;0.18;63.55;100067.87;2196967;81;29996;-62
2022/02/14 06:52:38;;;;;;;24.15;13.50;;;;;;;0.28;63.67;100061.64;2188785;81;31140;-62
2022/02/14 06:55:40;;;;;;;21.77;12.23;;;;;;;0.42;63.78;100062.34;2173854;81;34182;-62
2022/02/14 06:58:42;;;;;;;20.20;12.23;;;;;;;0.59;63.91;100070.03;2158393;82;29695;-62
2022/02/14 07:01:44;;;;;;;20.57;12.98;;;;;;;0.78;63.81;100063.21;2159098;81;27554;-63
2022/02/14 07:04:46;;;;;;;17.73;11.45;;;;;;;0.96;63.73;100051.98;2158212;82;29237;-62
2022/02/14 07:07:48;;;;;;;26.20;13.72;;;;;;;1.15;63.68;100057.42;2158412;82;31395;-62
2022/02/14 07:10:50;;;;;;;20.32;12.00;;;;;;;1.38;63.64;100050.94;2158774;82;33359;-62
2022/02/14 07:13:51;;;;;;;23.70;11.65;;;;;;;1.64;63.42;100057.55;2158441;81;29538;-62
2022/02/14 07:16:53;;;;;;;20.27;13.25;;;;;;;1.88;63.27;100066.81;2158847;81;28280;-62
2022/02/14 07:19:55;;;;;;;23.92;12.93;;;;;;;2.09;62.99;100064.69;2158285;81;29036;-62
2022/02/14 07:22:58;;;;;;;20.30;11.63;;;;;;;2.26;62.61;100055.98;2158030;82;31446;-62
2022/02/14 07:26:00;;;;;;;17.20;12.00;;;;;;;2.45;62.67;100063.99;2158622;81;33399;-63
2022/02/14 07:29:01;;;;;;;23.75;12.80;;;;;;;2.60;62.27;100057.53;2158353;82;29708;-63
2022/02/14 07:32:05;;;;;;;17.77;11.22;;;;;;;2.76;62.20;100056.74;2158651;81;27631;-63
2022/02/14 07:35:08;;;;;;;20.00;11.68;;;;;;;2.96;61.94;100057.19;2158072;82;28731;-63
2022/02/14 07:38:10;;;;;;;19.37;11.88;;;;;;;3.22;61.70;100043.83;2158525;81;31762;-63
2022/02/14 07:41:11;;;;;;;25.00;11.53;;;;;;;3.55;61.53;100045.68;2167493;81;33284;-63
2022/02/14 07:44:13;;;;;;;20.82;11.75;;;;;;;3.93;61.30;100043.37;2174430;81;30491;-63
2022/02/14 07:47:15;;;;;;;18.95;11.60;;;;;;;4.32;60.45;100041.47;2174899;81;27715;-63
2022/02/14 07:50:17;;;;;;;19.80;11.73;;;;;;;4.69;59.98;100036.43;2174819;81;29044;-63
2022/02/14 07:53:19;;;;;;;30.45;12.25;;;;;;;5.01;59.31;100039.42;2174945;81;31409;-64
2022/02/14 07:56:22;;;;;;;19.45;11.18;;;;;;;5.35;59.29;100039.27;2174677;81;32951;-63
2022/02/14 07:59:24;;;;;;;19.32;11.20;;;;;;;5.66;58.53;100045.78;2174666;81;29335;-63
2022/02/14 08:02:26;;;;;;;19.17;12.58;;;;;;;5.98;58.60;100039.83;2158713;81;28167;-64
2022/02/14 08:05:27;;;;;;;19.92;11.43;;;;;;;6.32;58.34;100036.00;2158316;81;28752;-64
2022/02/14 08:08:29;;;;;;;16.12;10.68;;;;;;;6.62;58.33;100034.45;2158200;81;31809;-64
2022/02/14 08:11:31;;;;;;;17.45;12.03;;;;;;;6.90;57.21;100029.39;2157987;81;34301;-64
2022/02/14 08:14:33;;;;;;;15.55;11.83;;;;;;;7.09;56.80;100022.91;2158065;82;31457;-64
2022/02/14 08:17:36;;;;;;;17.35;11.30;;;;;;;7.30;56.06;100019.83;2158359;81;27626;-64
2022/02/14 08:20:38;;;;;;;18.02;11.05;;;;;;;7.50;56.43;100014.60;2156768;82;29879;-64
2022/02/14 08:23:40;;;;;;;16.17;10.60;;;;;;;7.67;55.79;100016.58;2158255;81;31491;-64
2022/02/14 08:26:42;;;;;;;15.20;11.03;;;;;;;7.81;54.84;100019.97;2157834;82;34180;-63
2022/02/14 08:29:45;;;;;;;16.20;10.50;;;;;;;7.90;54.65;100015.11;2158231;82;29337;-61
2022/02/14 08:32:46;;;;;;;19.32;11.57;;;;;;;8.00;54.50;100016.91;2158870;81;28279;-72
2022/02/14 08:35:48;;;;;;;16.60;11.48;;;;;;;8.12;54.10;100024.86;2164754;81;28659;-73
2022/02/14 08:38:50;;;;;;;14.87;11.08;;;;;;;8.23;53.31;100015.05;2195769;81;31810;-74
2022/02/14 08:41:52;;;;;;;17.32;11.20;;;;;;;8.31;53.65;100014.22;2196613;81;32950;-69
2022/02/14 08:44:53;;;;;;;17.80;10.65;;;;;;;8.26;53.39;100015.36;2197056;81;30084;-72
2022/02/14 08:47:55;;;;;;;15.68;10.70;;;;;;;8.17;52.64;100016.19;2197052;81;27697;-69
2022/02/14 08:50:57;;;;;;;22.27;11.33;;;;;;;8.07;53.11;100008.17;2196916;81;29503;-71
2022/02/14 08:53:59;;;;;;;23.57;12.65;;;;;;;7.95;52.73;100008.72;2197063;81;31776;-72
2022/02/14 08:57:00;;;;;;;19.20;12.05;;;;;;;7.84;53.23;100010.51;2171487;81;33786;-71
2022/02/14 09:00:04;;;;;;;16.77;10.95;;;;;;;7.75;52.83;100011.77;2157375;82;29324;-71
2022/02/14 09:03:06;;;;;;;17.47;11.10;;;;;;;7.67;52.57;99992.58;2160417;80;27786;-71
2022/02/14 09:06:14;;;;;;;16.57;11.48;;;;;;;7.63;53.24;100001.16;2172888;80;29491;-71
2022/02/14 09:09:12;;;;;;;17.70;11.12;;;;;;;7.64;52.78;100002.03;2174444;81;31194;-72
2022/02/14 09:12:14;;;;;;;17.82;11.45;;;;;;;7.57;53.16;100000.95;2178069;81;33723;-77
2022/02/14 09:15:16;;;;;;;15.40;11.57;;;;;;;7.60;52.79;99987.98;2145372;83;29326;-71
2022/02/14 09:18:18;;;;;;;17.92;11.18;;;;;;;7.56;52.92;99998.36;2144815;82;27731;-72
2022/02/14 09:21:20;;;;;;;20.43;12.13;;;;;;;7.57;53.37;99994.77;2151165;81;29485;-74
2022/02/14 09:24:21;;;;;;;16.57;12.50;;;;;;;7.62;53.36;99990.56;2133843;82;31077;-72
2022/02/14 09:27:23;;;;;;;20.17;11.55;;;;;;;7.67;53.10;99983.25;2155976;82;33002;-72
2022/02/14 09:30:24;;;;;;;17.57;11.83;;;;;;;7.70;52.99;99981.31;2234140;79;30119;-71
2022/02/14 09:33:26;;;;;;;16.80;11.33;;;;;;;7.72;53.19;99974.12;2235021;79;27651;-73
2022/02/14 09:36:28;;;;;;;22.00;11.95;;;;;;;7.75;52.86;99981.10;2221521;79;28640;-70
2022/02/14 09:39:32;;;;;;;19.67;12.28;;;;;;;7.79;52.82;99975.16;2197223;79;31007;-72
2022/02/14 09:42:36;;;;;;;23.18;12.88;;;;;;;7.86;53.16;99967.31;2236206;79;33941;-70
2022/02/14 09:45:38;;;;;;;20.10;11.80;;;;;;;7.90;53.05;99961.77;2181767;80;29331;-70
2022/02/14 09:48:44;;;;;;;18.50;11.65;;;;;;;7.93;52.60;99963.45;2186982;80;28185;-68
2022/02/14 09:51:46;;;;;;;17.35;11.65;;;;;;;7.98;52.62;99968.09;2197608;81;29471;-73
2022/02/14 09:54:48;;;;;;;21.25;11.33;;;;;;;8.02;52.65;99953.69;2157841;82;31040;-69
2022/02/14 09:57:50;;;;;;;21.37;11.90;;;;;;;8.02;52.43;99961.70;2173770;80;32943;-70
2022/02/14 10:00:54;;;;;;;18.27;11.50;;;;;;;8.04;52.20;99964.28;2123620;83;29350;-70
2022/02/14 10:03:57;;;;;;;17.98;12.18;;;;;;;8.04;51.44;99949.16;2123972;82;27650;-72
2022/02/14 10:07:09;;;;;;;24.35;13.18;;;;;;;8.01;51.90;99955.95;2162046;82;28776;-69
2022/02/14 10:10:20;;;;;;;19.98;13.03;;;;;;;7.97;51.99;99958.84;2196786;81;30450;-69
2022/02/14 10:13:32;;;;;;;19.80;12.60;;;;;;;7.95;51.86;99958.04;2197692;81;33777;-70
2022/02/14 10:16:34;;;;;;;24.23;11.95;;;;;;;7.94;51.32;99950.52;2193932;81;29501;-71
2022/02/14 10:19:45;;;;;;;19.52;11.28;;;;;;;7.86;51.37;99945.97;2198002;81;27698;-71
2022/02/14 10:23:05;;;;;;;18.23;11.68;;;;;;;7.84;51.88;99950.50;2155423;82;28697;-71
2022/02/14 10:26:07;;;;;;;20.62;12.35;;;;;;;7.83;51.79;99942.98;2165719;81;31879;-72
2022/02/14 10:29:21;;;;;;;19.37;12.20;;;;;;;7.75;50.93;99934.44;2161609;82;32942;-70
2022/02/14 10:32:25;;;;;;;23.18;12.18;;;;;;;7.69;51.01;99923.59;2161939;82;30065;-72
2022/02/14 10:35:27;;;;;;;23.30;11.08;;;;;;;7.62;51.08;99931.92;2198290;81;27595;-75
2022/02/14 10:38:29;;;;;;;18.85;11.78;;;;;;;7.59;51.34;99936.45;2122350;83;28837;-69
2022/02/14 10:41:31;;;;;;;16.80;11.53;;;;;;;7.55;50.86;99921.51;2123478;82;31804;-69
2022/02/14 10:48:02;;;;;;;14.33;10.08;;;;;;;7.52;50.85;99916.34;2157841;82;29402;-69
2022/02/14 10:51:04;;;;;;;20.85;11.85;;;;;;;7.52;50.82;99917.67;2157988;82;28153;-71
2022/02/14 10:54:06;;;;;;;20.30;12.35;;;;;;;7.53;50.88;99907.38;2155850;81;28683;-71
2022/02/14 10:57:27;;;;;;;15.72;10.88;;;;;;;7.57;51.43;99908.98;2179556;81;31155;-71
2022/02/14 11:00:33;;;;;;;19.27;10.72;;;;;;;7.57;50.47;99895.66;2197176;81;32949;-70
2022/02/14 11:03:34;;;;;;;16.82;10.15;;;;;;;7.54;50.55;99883.79;2196924;81;29414;-70
2022/02/14 11:06:37;;;;;;;19.30;11.25;;;;;;;7.54;50.57;99893.59;2161534;81;27635;-65
2022/02/14 11:09:43;;;;;;;14.55;9.70;;;;;;;7.57;51.13;99878.33;2169444;80;28286;-65
2022/02/14 11:12:55;;;;;;;16.77;8.58;;;;;;;7.63;50.40;99873.67;2182694;80;31863;-64
2022/02/14 11:16:00;;;;;;;14.83;8.55;;;;;;;7.65;50.37;99870.47;2157887;81;32975;-67
2022/02/14 11:19:02;;;;;;;13.03;7.97;;;;;;;7.67;50.04;99865.45;2162774;81;29489;-66
2022/02/14 11:22:05;;;;;;;12.58;7.87;;;;;;;7.69;49.46;99864.08;2151452;81;27709;-66
2022/02/14 11:25:35;;;;;;;15.00;8.05;;;;;;;7.68;49.29;99868.53;2121755;83;29514;-66
2022/02/14 11:29:09;;;;;;;11.48;7.80;;;;;;;7.71;49.46;99864.84;2122984;83;31054;-67
2022/02/14 11:32:32;;;;;;;11.43;7.37;;;;;;;7.74;49.39;99864.27;2123448;82;32985;-76
2022/02/14 11:35:33;;;;;;;12.50;7.90;;;;;;;7.80;48.51;99861.78;2127108;82;29359;-78
2022/02/14 11:38:54;;;;;;;14.87;7.80;;;;;;;7.82;48.72;99853.25;2104939;83;27719;-76
2022/02/14 11:42:01;;;;;;;15.53;8.38;;;;;;;7.84;48.98;99851.83;2122237;83;28708;-74
2022/02/14 11:45:13;;;;;;;14.70;8.40;;;;;;;7.87;48.86;99849.03;2122260;83;31780;-76
2022/02/14 11:48:27;;;;;;;15.05;7.78;;;;;;;7.88;49.05;99848.09;2122436;83;33020;-74
2022/02/14 11:51:53;;;;;;;12.93;8.03;;;;;;;7.89;49.12;99852.02;2121527;83;29315;-74
2022/02/14 11:54:56;;;;;;;11.15;7.45;;;;;;;7.90;48.92;99841.75;2129463;82;27694;-71
2022/02/14 11:57:58;;;;;;;12.10;7.80;;;;;;;7.93;48.97;99830.09;2125051;82;28670;-77
2022/02/14 12:01:06;;;;;;;9.83;7.28;;;;;;;7.95;48.90;99833.52;2135421;82;31036;-78
2022/02/14 12:04:39;;;;;;;11.57;7.37;;;;;;;7.98;48.82;99820.05;2110063;82;27875;-77
2022/02/14 12:07:41;;;;;;;12.98;7.42;;;;;;;8.00;48.34;99816.00;2144738;82;29340;-78
2022/02/14 12:10:50;;;;;;;12.73;7.08;;;;;;;8.00;48.43;99820.00;2147534;82;27726;-78
2022/02/14 12:13:55;;;;;;;10.75;7.08;;;;;;;7.99;47.88;99813.78;2109026;83;28676;-74
2022/02/14 12:20:34;;;;;;;11.20;7.30;;;;;;;8.00;48.38;99804.00;2128355;82;33157;-73
2022/02/14 12:23:42;;;;;;;12.15;7.72;;;;;;;8.02;48.51;99793.64;2196718;80;29342;-74
2022/02/14 12:26:54;;;;;;;12.07;7.25;;;;;;;8.04;48.16;99791.77;2175270;81;27733;-74
2022/02/14 12:29:56;;;;;;;14.65;6.80;;;;;;;8.09;48.43;99789.36;2157927;82;28853;-77
2022/02/14 12:33:05;;;;;;;11.10;7.30;;;;;;;8.10;48.09;99783.09;2157616;82;30992;-71
2022/02/14 12:36:11;;;;;;;13.10;7.20;;;;;;;8.10;48.05;99782.60;2157595;82;33167;-73
2022/02/14 12:39:12;;;;;;;9.20;6.53;;;;;;;8.12;47.83;99787.85;2155069;82;30132;-74
2022/02/14 12:42:24;;;;;;;11.10;6.85;;;;;;;8.11;47.35;99774.99;2127300;82;27768;-74
2022/02/14 12:45:25;;;;;;;12.47;6.67;;;;;;;8.11;47.45;99783.00;2190632;81;29589;-77
2022/02/14 12:48:40;;;;;;;10.13;7.50;;;;;;;8.11;46.95;99772.81;2182387;81;31177;-78
2022/02/14 12:51:43;;;;;;;12.45;7.30;;;;;;;8.11;47.68;99768.81;2119569;84;34004;-73
2022/02/14 12:54:56;;;;;;;13.65;7.20;;;;;;;8.11;47.85;99762.98;2161953;82;30452;-71
2022/02/14 12:57:58;;;;;;;11.38;7.12;;;;;;;8.13;47.72;99761.12;2119502;83;28263;-77
2022/02/14 13:01:06;;;;;;;11.10;7.05;;;;;;;8.16;48.37;99758.76;2161631;81;28807;-78
2022/02/14 13:04:11;;;;;;;13.15;7.62;;;;;;;8.20;47.94;99751.86;2119762;82;31088;-78
2022/02/14 13:07:13;;;;;;;13.35;8.35;;;;;;;8.20;47.44;99761.20;2158163;82;32962;-75
2022/02/14 13:10:18;;;;;;;17.37;7.30;;;;;;;8.20;47.46;99744.34;2190035;80;29493;-74
2022/02/14 13:13:30;;;;;;;12.25;8.05;;;;;;;8.19;47.52;99754.12;2201140;80;27572;-78
2022/02/14 13:16:32;;;;;;;11.43;7.78;;;;;;;8.18;47.91;99744.42;2200807;80;28763;-78
2022/02/14 13:19:33;;;;;;;18.00;7.75;;;;;;;8.18;47.96;99744.42;2175568;80;31237;-78
2022/02/14 13:22:41;;;;;;;12.58;7.22;;;;;;;8.18;47.83;99748.87;2179876;81;32983;-74
2022/02/14 13:25:53;;;;;;;15.58;8.18;;;;;;;8.16;47.78;99736.96;2164275;80;29444;-76
2022/02/14 13:28:56;;;;;;;18.67;8.10;;;;;;;8.15;47.77;99733.89;2197999;80;27577;-78
2022/02/14 13:31:58;;;;;;;9.15;7.35;;;;;;;8.15;48.08;99736.56;2197641;80;28692;-77
2022/02/14 13:35:07;;;;;;;12.37;8.10;;;;;;;8.16;48.13;99737.41;2173710;81;31090;-76
2022/02/14 13:38:09;;;;;;;15.58;8.80;;;;;;;8.17;48.34;99734.69;2161122;82;32975;-79
2022/02/14 13:41:12;;;;;;;13.13;7.95;;;;;;;8.17;48.37;99729.35;2138267;82;30108;-77
2022/02/14 13:44:14;;;;;;;14.18;8.08;;;;;;;8.18;48.45;99723.53;2163274;81;27712;-80
2022/02/14 13:47:18;;;;;;;11.15;7.58;;;;;;;8.19;48.78;99728.78;2162878;82;28834;-79
2022/02/14 13:50:25;;;;;;;12.13;5.92;;;;;;;8.19;48.66;99726.11;2162874;82;32004;-75
2022/02/14 13:53:33;;;;;;;14.30;7.62;;;;;;;8.19;48.63;99722.59;2162643;82;34044;-80
2022/02/14 13:56:46;;;;;;;19.25;8.08;;;;;;;8.17;48.64;99723.14;2162893;81;29388;-77
2022/02/14 13:59:47;;;;;;;13.03;7.20;;;;;;;8.16;48.69;99718.28;2201705;80;27672;-78
2022/02/14 14:03:08;;;;;;;11.48;7.47;;;;;;;8.15;48.75;99723.23;2201402;80;29413;-75
2022/02/14 14:06:23;;;;;;;12.93;7.87;;;;;;;8.13;48.84;99714.42;2177299;80;31030;-75
2022/02/14 14:09:25;;;;;;;13.83;9.25;;;;;;;8.12;48.86;99714.48;2172423;80;32967;-77
2022/02/14 14:12:27;;;;;;;10.32;7.10;;;;;;;8.10;48.64;99710.57;2161085;82;29457;-76
2022/02/14 14:15:28;;;;;;;16.93;7.65;;;;;;;8.07;48.71;99712.05;2162404;81;27665;-76
2022/02/14 14:18:30;;;;;;;11.97;7.40;;;;;;;8.04;48.84;99713.08;2161706;82;29455;-75